sensor_id;sensor_type;location;lat;lon;timestamp;P1;durP1;ratioP1;P2;durP2;ratioP2
67344;SDS011;54230;52.402;6.276;2023-03-01T00:00:00;23.1;;;20.7;;
67344;SDS011;54230;52.402;6.276;2023-03-01T00:05:00;24.2;;;21.6;;
67344;SDS011;54230;52.402;6.276;2023-03-01T00:10:00;23.6;;;21.2;;
67344;SDS011;54230;52.402;6.276;2023-03-01T00:15:00;23.1;;;20.7;;
67344;SDS011;54230;52.402;6.276;2023-03-01T00:20:00;24.6;;;22.1;;
67344;SDS011;54230;52.402;6.276;2023-03-01T00:25:00;24.5;;;22.0;;
67344;SDS011;54230;52.402;6.276;2023-03-01T00:30:00;22.7;;;20.3;;
67344;SDS011;54230;52.402;6.276;2023-03-01T00:35:00;24.7;;;22.1;;
67344;SDS011;54230;52.402;6.276;2023-03-01T00:40:00;25.2;;;22.7;;
67344;SDS011;54230;52.402;6.276;2023-03-01T00:45:00;23.7;;;21.3;;
67344;SDS011;54230;52.402;6.276;2023-03-01T00:50:00;23.4;;;20.9;;
67344;SDS011;54230;52.402;6.276;2023-03-01T00:55:00;23.9;;;21.4;;
67344;SDS011;54230;52.402;6.276;2023-03-01T01:00:00;23.3;;;20.8;;
67344;SDS011;54230;52.402;6.276;2023-03-01T01:05:00;24.1;;;21.6;;
67344;SDS011;54230;52.402;6.276;2023-03-01T01:10:00;24.9;;;22.3;;
67344;SDS011;54230;52.402;6.276;2023-03-01T01:15:00;25.7;;;23.0;;
67344;SDS011;54230;52.402;6.276;2023-03-01T01:20:00;25.4;;;22.7;;
67344;SDS011;54230;52.402;6.276;2023-03-01T01:25:00;24.2;;;21.7;;
67344;SDS011;54230;52.402;6.276;2023-03-01T01:30:00;24.1;;;21.5;;
67344;SDS011;54230;52.402;6.276;2023-03-01T01:35:00;24.0;;;21.5;;
67344;SDS011;54230;52.402;6.276;2023-03-01T01:40:00;25.7;;;23.1;;
67344;SDS011;54230;52.402;6.276;2023-03-01T01:50:00;25.3;;;22.6;;
67344;SDS011;54230;52.402;6.276;2023-03-01T01:55:02;29.0;;;22.9;;
67344;SDS011;54230;52.402;6.276;2023-03-01T02:00:09;26.6;;;23.7;;
67344;SDS011;54230;52.402;6.276;2023-03-01T02:05:02;28.0;;;25.1;;
67344;SDS011;54230;52.402;6.276;2023-03-01T02:10:00;26.7;;;23.8;;
67344;SDS011;54230;52.402;6.276;2023-03-01T02:15:00;26.7;;;22.7;;
67344;SDS011;54230;52.402;6.276;2023-03-01T02:20:04;26.4;;;23.5;;
67344;SDS011;54230;52.402;6.276;2023-03-01T02:25:03;30.4;;;25.1;;
67344;SDS011;54230;52.402;6.276;2023-03-01T02:30:00;27.2;;;24.3;;
67344;SDS011;54230;52.402;6.276;2023-03-01T02:35:00;29.1;;;26.0;;
67344;SDS011;54230;52.402;6.276;2023-03-01T02:40:02;28.7;;;25.1;;
67344;SDS011;54230;52.402;6.276;2023-03-01T02:45:00;27.7;;;24.7;;
67344;SDS011;54230;52.402;6.276;2023-03-01T02:50:00;30.0;;;26.7;;
67344;SDS011;54230;52.402;6.276;2023-03-01T02:55:01;28.4;;;25.4;;
67344;SDS011;54230;52.402;6.276;2023-03-01T03:00:03;30.9;;;24.6;;
67344;SDS011;54230;52.402;6.276;2023-03-01T03:05:00;28.8;;;25.4;;
67344;SDS011;54230;52.402;6.276;2023-03-01T03:10:00;31.6;;;26.0;;
67344;SDS011;54230;52.402;6.276;2023-03-01T03:15:00;28.0;;;23.9;;
67344;SDS011;54230;52.402;6.276;2023-03-01T03:20:00;30.8;;;26.1;;
67344;SDS011;54230;52.402;6.276;2023-03-01T03:25:00;31.0;;;25.3;;
67344;SDS011;54230;52.402;6.276;2023-03-01T03:30:00;29.9;;;25.7;;
67344;SDS011;54230;52.402;6.276;2023-03-01T03:35:00;29.5;;;25.4;;
67344;SDS011;54230;52.402;6.276;2023-03-01T03:40:00;30.9;;;26.0;;
67344;SDS011;54230;52.402;6.276;2023-03-01T03:45:00;31.7;;;27.0;;
67344;SDS011;54230;52.402;6.276;2023-03-01T03:50:00;33.2;;;26.0;;
67344;SDS011;54230;52.402;6.276;2023-03-01T03:55:00;30.4;;;25.7;;
67344;SDS011;54230;52.402;6.276;2023-03-01T04:00:00;32.4;;;26.4;;
67344;SDS011;54230;52.402;6.276;2023-03-01T04:05:00;33.2;;;27.0;;
67344;SDS011;54230;52.402;6.276;2023-03-01T04:10:00;31.8;;;27.4;;
67344;SDS011;54230;52.402;6.276;2023-03-01T04:15:00;32.2;;;27.1;;
67344;SDS011;54230;52.402;6.276;2023-03-01T04:20:00;31.7;;;26.9;;
67344;SDS011;54230;52.402;6.276;2023-03-01T04:25:00;35.4;;;28.6;;
67344;SDS011;54230;52.402;6.276;2023-03-01T04:30:00;31.4;;;23.5;;
67344;SDS011;54230;52.402;6.276;2023-03-01T04:35:00;31.8;;;26.4;;
67344;SDS011;54230;52.402;6.276;2023-03-01T04:40:00;32.1;;;27.6;;
67344;SDS011;54230;52.402;6.276;2023-03-01T04:45:00;30.8;;;26.4;;
67344;SDS011;54230;52.402;6.276;2023-03-01T04:50:00;32.6;;;26.0;;
67344;SDS011;54230;52.402;6.276;2023-03-01T04:55:00;33.7;;;27.7;;
67344;SDS011;54230;52.402;6.276;2023-03-01T05:00:00;31.7;;;26.3;;
67344;SDS011;54230;52.402;6.276;2023-03-01T05:05:00;35.1;;;28.5;;
67344;SDS011;54230;52.402;6.276;2023-03-01T05:10:00;36.2;;;28.9;;
67344;SDS011;54230;52.402;6.276;2023-03-01T05:15:00;36.2;;;29.1;;
67344;SDS011;54230;52.402;6.276;2023-03-01T05:20:00;38.6;;;29.3;;
67344;SDS011;54230;52.402;6.276;2023-03-01T05:25:00;36.3;;;30.1;;
67344;SDS011;54230;52.402;6.276;2023-03-01T05:30:00;37.1;;;28.9;;
67344;SDS011;54230;52.402;6.276;2023-03-01T05:35:00;37.2;;;29.2;;
67344;SDS011;54230;52.402;6.276;2023-03-01T05:40:00;37.2;;;30.0;;
67344;SDS011;54230;52.402;6.276;2023-03-01T05:45:00;38.2;;;29.8;;
67344;SDS011;54230;52.402;6.276;2023-03-01T05:50:00;39.5;;;32.3;;
67344;SDS011;54230;52.402;6.276;2023-03-01T05:55:00;37.9;;;30.6;;
67344;SDS011;54230;52.402;6.276;2023-03-01T06:00:00;39.3;;;31.2;;
67344;SDS011;54230;52.402;6.276;2023-03-01T06:05:00;37.7;;;29.5;;
67344;SDS011;54230;52.402;6.276;2023-03-01T06:10:00;36.1;;;29.3;;
67344;SDS011;54230;52.402;6.276;2023-03-01T06:15:00;38.1;;;29.2;;
67344;SDS011;54230;52.402;6.276;2023-03-01T06:20:00;36.2;;;28.8;;
67344;SDS011;54230;52.402;6.276;2023-03-01T06:25:00;37.9;;;29.3;;
67344;SDS011;54230;52.402;6.276;2023-03-01T06:30:00;37.6;;;28.4;;
67344;SDS011;54230;52.402;6.276;2023-03-01T06:35:00;38.8;;;29.1;;
67344;SDS011;54230;52.402;6.276;2023-03-01T06:40:00;39.9;;;29.3;;
67344;SDS011;54230;52.402;6.276;2023-03-01T06:45:00;38.4;;;30.1;;
67344;SDS011;54230;52.402;6.276;2023-03-01T06:50:00;40.8;;;31.2;;
67344;SDS011;54230;52.402;6.276;2023-03-01T06:55:01;41.5;;;31.7;;
67344;SDS011;54230;52.402;6.276;2023-03-01T07:00:00;38.6;;;29.5;;
67344;SDS011;54230;52.402;6.276;2023-03-01T07:05:00;39.7;;;31.6;;
67344;SDS011;54230;52.402;6.276;2023-03-01T07:10:00;40.9;;;30.2;;
67344;SDS011;54230;52.402;6.276;2023-03-01T07:15:00;40.6;;;29.2;;
67344;SDS011;54230;52.402;6.276;2023-03-01T07:20:00;41.8;;;31.3;;
67344;SDS011;54230;52.402;6.276;2023-03-01T07:25:00;38.4;;;30.8;;
67344;SDS011;54230;52.402;6.276;2023-03-01T07:30:00;41.2;;;31.3;;
67344;SDS011;54230;52.402;6.276;2023-03-01T07:35:00;42.2;;;32.6;;
67344;SDS011;54230;52.402;6.276;2023-03-01T07:40:00;44.7;;;31.1;;
67344;SDS011;54230;52.402;6.276;2023-03-01T07:45:00;45.2;;;31.4;;
67344;SDS011;54230;52.402;6.276;2023-03-01T07:50:00;44.5;;;31.6;;
67344;SDS011;54230;52.402;6.276;2023-03-01T07:55:00;44.8;;;33.3;;
67344;SDS011;54230;52.402;6.276;2023-03-01T08:00:00;47.4;;;32.5;;
67344;SDS011;54230;52.402;6.276;2023-03-01T08:05:00;45.4;;;33.2;;
67344;SDS011;54230;52.402;6.276;2023-03-01T08:10:00;45.3;;;33.5;;
67344;SDS011;54230;52.402;6.276;2023-03-01T08:15:00;43.6;;;32.2;;
67344;SDS011;54230;52.402;6.276;2023-03-01T08:20:00;42.6;;;33.4;;
67344;SDS011;54230;52.402;6.276;2023-03-01T08:25:00;39.7;;;31.3;;
67344;SDS011;54230;52.402;6.276;2023-03-01T08:30:00;39.0;;;29.6;;
67344;SDS011;54230;52.402;6.276;2023-03-01T08:35:00;36.0;;;28.6;;
67344;SDS011;54230;52.402;6.276;2023-03-01T08:40:00;35.3;;;29.6;;
67344;SDS011;54230;52.402;6.276;2023-03-01T08:45:00;35.0;;;27.1;;
67344;SDS011;54230;52.402;6.276;2023-03-01T08:50:00;32.8;;;27.2;;
67344;SDS011;54230;52.402;6.276;2023-03-01T08:55:00;31.8;;;24.8;;
67344;SDS011;54230;52.402;6.276;2023-03-01T09:00:00;29.0;;;24.5;;
67344;SDS011;54230;52.402;6.276;2023-03-01T09:05:00;27.9;;;20.9;;
67344;SDS011;54230;52.402;6.276;2023-03-01T09:10:00;23.2;;;16.2;;
67344;SDS011;54230;52.402;6.276;2023-03-01T09:15:00;19.2;;;10.9;;
67344;SDS011;54230;52.402;6.276;2023-03-01T09:20:00;18.9;;;9.4;;
67344;SDS011;54230;52.402;6.276;2023-03-01T09:25:00;14.8;;;8.8;;
67344;SDS011;54230;52.402;6.276;2023-03-01T09:30:00;15.8;;;8.5;;
67344;SDS011;54230;52.402;6.276;2023-03-01T09:35:00;15.9;;;8.7;;
67344;SDS011;54230;52.402;6.276;2023-03-01T09:40:00;14.6;;;8.0;;
67344;SDS011;54230;52.402;6.276;2023-03-01T09:45:01;12.9;;;7.0;;
67344;SDS011;54230;52.402;6.276;2023-03-01T09:50:02;11.1;;;5.9;;
67344;SDS011;54230;52.402;6.276;2023-03-01T09:55:00;11.2;;;5.7;;
67344;SDS011;54230;52.402;6.276;2023-03-01T10:00:04;12.6;;;5.9;;
67344;SDS011;54230;52.402;6.276;2023-03-01T10:05:04;11.4;;;5.6;;
67344;SDS011;54230;52.402;6.276;2023-03-01T10:10:00;10.2;;;5.0;;
67344;SDS011;54230;52.402;6.276;2023-03-01T10:15:02;7.1;;;3.9;;
67344;SDS011;54230;52.402;6.276;2023-03-01T10:20:10;8.4;;;3.7;;
67344;SDS011;54230;52.402;6.276;2023-03-01T10:25:02;8.0;;;4.0;;
67344;SDS011;54230;52.402;6.276;2023-03-01T10:30:02;7.3;;;3.9;;
67344;SDS011;54230;52.402;6.276;2023-03-01T10:35:00;8.1;;;3.9;;
67344;SDS011;54230;52.402;6.276;2023-03-01T10:40:01;8.6;;;4.5;;
67344;SDS011;54230;52.402;6.276;2023-03-01T10:50:01;6.9;;;3.8;;
67344;SDS011;54230;52.402;6.276;2023-03-01T10:55:01;7.8;;;3.8;;
67344;SDS011;54230;52.402;6.276;2023-03-01T11:00:01;8.6;;;4.1;;
67344;SDS011;54230;52.402;6.276;2023-03-01T11:05:00;8.4;;;4.1;;
67344;SDS011;54230;52.402;6.276;2023-03-01T11:10:01;7.0;;;3.8;;
67344;SDS011;54230;52.402;6.276;2023-03-01T11:15:00;7.7;;;3.8;;
67344;SDS011;54230;52.402;6.276;2023-03-01T11:20:01;8.0;;;3.8;;
67344;SDS011;54230;52.402;6.276;2023-03-01T11:25:00;7.1;;;3.7;;
67344;SDS011;54230;52.402;6.276;2023-03-01T11:30:01;8.2;;;3.8;;
67344;SDS011;54230;52.402;6.276;2023-03-01T11:35:01;9.8;;;4.3;;
67344;SDS011;54230;52.402;6.276;2023-03-01T11:40:03;8.0;;;4.0;;
67344;SDS011;54230;52.402;6.276;2023-03-01T11:45:01;8.4;;;3.8;;
67344;SDS011;54230;52.402;6.276;2023-03-01T11:50:02;9.2;;;4.3;;
67344;SDS011;54230;52.402;6.276;2023-03-01T11:55:11;8.2;;;3.8;;
67344;SDS011;54230;52.402;6.276;2023-03-01T12:00:07;8.3;;;4.6;;
67344;SDS011;54230;52.402;6.276;2023-03-01T12:05:04;7.1;;;3.9;;
67344;SDS011;54230;52.402;6.276;2023-03-01T12:15:11;7.8;;;4.4;;
67344;SDS011;54230;52.402;6.276;2023-03-01T12:25:04;7.3;;;4.4;;
67344;SDS011;54230;52.402;6.276;2023-03-01T12:30:02;7.6;;;4.2;;
67344;SDS011;54230;52.402;6.276;2023-03-01T12:35:06;7.7;;;4.0;;
67344;SDS011;54230;52.402;6.276;2023-03-01T12:40:11;7.3;;;4.0;;
67344;SDS011;54230;52.402;6.276;2023-03-01T12:45:04;8.5;;;4.5;;
67344;SDS011;54230;52.402;6.276;2023-03-01T12:50:01;8.8;;;4.5;;
67344;SDS011;54230;52.402;6.276;2023-03-01T12:55:00;8.1;;;4.6;;
67344;SDS011;54230;52.402;6.276;2023-03-01T13:00:02;9.7;;;4.6;;
67344;SDS011;54230;52.402;6.276;2023-03-01T13:05:04;8.4;;;4.3;;
67344;SDS011;54230;52.402;6.276;2023-03-01T13:10:06;9.4;;;4.6;;
67344;SDS011;54230;52.402;6.276;2023-03-01T13:15:00;10.5;;;4.7;;
67344;SDS011;54230;52.402;6.276;2023-03-01T13:20:00;9.1;;;4.6;;
67344;SDS011;54230;52.402;6.276;2023-03-01T13:25:01;8.6;;;4.7;;
67344;SDS011;54230;52.402;6.276;2023-03-01T13:30:00;9.7;;;4.7;;
67344;SDS011;54230;52.402;6.276;2023-03-01T13:35:00;8.6;;;4.1;;
67344;SDS011;54230;52.402;6.276;2023-03-01T13:40:03;9.7;;;5.1;;
67344;SDS011;54230;52.402;6.276;2023-03-01T13:45:00;9.7;;;4.9;;
67344;SDS011;54230;52.402;6.276;2023-03-01T13:50:01;9.3;;;4.6;;
67344;SDS011;54230;52.402;6.276;2023-03-01T13:55:00;8.0;;;4.6;;
67344;SDS011;54230;52.402;6.276;2023-03-01T14:00:00;9.0;;;4.8;;
67344;SDS011;54230;52.402;6.276;2023-03-01T14:05:00;8.7;;;4.4;;
67344;SDS011;54230;52.402;6.276;2023-03-01T14:10:02;9.1;;;4.5;;
67344;SDS011;54230;52.402;6.276;2023-03-01T14:15:01;7.9;;;4.4;;
67344;SDS011;54230;52.402;6.276;2023-03-01T14:20:01;7.5;;;4.6;;
67344;SDS011;54230;52.402;6.276;2023-03-01T14:25:01;8.4;;;4.5;;
67344;SDS011;54230;52.402;6.276;2023-03-01T14:30:01;8.5;;;4.0;;
67344;SDS011;54230;52.402;6.276;2023-03-01T14:35:00;8.2;;;4.4;;
67344;SDS011;54230;52.402;6.276;2023-03-01T14:40:01;7.7;;;4.3;;
67344;SDS011;54230;52.402;6.276;2023-03-01T14:45:00;10.0;;;4.1;;
67344;SDS011;54230;52.402;6.276;2023-03-01T14:50:02;8.8;;;4.1;;
67344;SDS011;54230;52.402;6.276;2023-03-01T14:55:00;7.7;;;4.2;;
67344;SDS011;54230;52.402;6.276;2023-03-01T15:00:02;8.9;;;4.4;;
67344;SDS011;54230;52.402;6.276;2023-03-01T15:05:01;6.8;;;3.8;;
67344;SDS011;54230;52.402;6.276;2023-03-01T15:10:00;7.5;;;4.0;;
67344;SDS011;54230;52.402;6.276;2023-03-01T15:15:00;15.2;;;4.5;;
67344;SDS011;54230;52.402;6.276;2023-03-01T15:20:00;8.4;;;4.5;;
67344;SDS011;54230;52.402;6.276;2023-03-01T15:25:00;7.9;;;4.4;;
67344;SDS011;54230;52.402;6.276;2023-03-01T15:30:00;8.0;;;4.7;;
67344;SDS011;54230;52.402;6.276;2023-03-01T15:35:00;8.0;;;4.1;;
67344;SDS011;54230;52.402;6.276;2023-03-01T15:40:00;7.5;;;4.2;;
67344;SDS011;54230;52.402;6.276;2023-03-01T15:45:08;7.5;;;4.1;;
67344;SDS011;54230;52.402;6.276;2023-03-01T15:50:00;8.2;;;4.0;;
67344;SDS011;54230;52.402;6.276;2023-03-01T15:55:01;7.8;;;4.4;;
67344;SDS011;54230;52.402;6.276;2023-03-01T16:00:00;7.8;;;3.9;;
67344;SDS011;54230;52.402;6.276;2023-03-01T16:05:00;7.7;;;4.3;;
67344;SDS011;54230;52.402;6.276;2023-03-01T16:10:00;7.2;;;4.0;;
67344;SDS011;54230;52.402;6.276;2023-03-01T16:15:00;6.8;;;3.8;;
67344;SDS011;54230;52.402;6.276;2023-03-01T16:20:00;8.9;;;4.5;;
67344;SDS011;54230;52.402;6.276;2023-03-01T16:25:00;9.8;;;4.8;;
67344;SDS011;54230;52.402;6.276;2023-03-01T16:30:00;7.7;;;4.5;;
67344;SDS011;54230;52.402;6.276;2023-03-01T16:35:00;7.7;;;4.5;;
67344;SDS011;54230;52.402;6.276;2023-03-01T16:40:00;8.5;;;4.8;;
67344;SDS011;54230;52.402;6.276;2023-03-01T16:45:00;8.8;;;4.8;;
67344;SDS011;54230;52.402;6.276;2023-03-01T16:50:00;10.1;;;5.1;;
67344;SDS011;54230;52.402;6.276;2023-03-01T16:55:01;8.5;;;4.8;;
67344;SDS011;54230;52.402;6.276;2023-03-01T17:00:00;11.0;;;5.1;;
67344;SDS011;54230;52.402;6.276;2023-03-01T17:05:00;9.7;;;5.0;;
67344;SDS011;54230;52.402;6.276;2023-03-01T17:10:00;9.5;;;5.2;;
67344;SDS011;54230;52.402;6.276;2023-03-01T17:15:00;10.0;;;5.2;;
67344;SDS011;54230;52.402;6.276;2023-03-01T17:20:00;20.3;;;9.0;;
67344;SDS011;54230;52.402;6.276;2023-03-01T17:25:00;84.1;;;31.1;;
67344;SDS011;54230;52.402;6.276;2023-03-01T17:30:00;62.0;;;24.4;;
67344;SDS011;54230;52.402;6.276;2023-03-01T17:35:00;23.1;;;10.7;;
67344;SDS011;54230;52.402;6.276;2023-03-01T17:40:00;14.1;;;7.3;;
67344;SDS011;54230;52.402;6.276;2023-03-01T17:45:00;15.2;;;8.2;;
67344;SDS011;54230;52.402;6.276;2023-03-01T17:50:00;13.5;;;6.5;;
67344;SDS011;54230;52.402;6.276;2023-03-01T17:55:00;14.6;;;6.7;;
67344;SDS011;54230;52.402;6.276;2023-03-01T18:00:00;15.7;;;6.7;;
67344;SDS011;54230;52.402;6.276;2023-03-01T18:05:00;12.0;;;6.2;;
67344;SDS011;54230;52.402;6.276;2023-03-01T18:10:00;12.6;;;6.5;;
67344;SDS011;54230;52.402;6.276;2023-03-01T18:15:00;12.5;;;6.3;;
67344;SDS011;54230;52.402;6.276;2023-03-01T18:20:00;12.4;;;6.2;;
67344;SDS011;54230;52.402;6.276;2023-03-01T18:25:00;13.8;;;6.7;;
67344;SDS011;54230;52.402;6.276;2023-03-01T18:30:00;15.1;;;6.7;;
67344;SDS011;54230;52.402;6.276;2023-03-01T18:35:00;13.8;;;6.7;;
67344;SDS011;54230;52.402;6.276;2023-03-01T18:40:00;12.8;;;6.5;;
67344;SDS011;54230;52.402;6.276;2023-03-01T18:45:00;14.7;;;7.4;;
67344;SDS011;54230;52.402;6.276;2023-03-01T18:50:00;14.8;;;7.3;;
67344;SDS011;54230;52.402;6.276;2023-03-01T18:55:00;16.5;;;7.4;;
67344;SDS011;54230;52.402;6.276;2023-03-01T19:00:00;14.8;;;7.3;;
67344;SDS011;54230;52.402;6.276;2023-03-01T19:05:00;15.6;;;7.7;;
67344;SDS011;54230;52.402;6.276;2023-03-01T19:10:00;16.4;;;8.3;;
67344;SDS011;54230;52.402;6.276;2023-03-01T19:15:00;18.0;;;8.3;;
67344;SDS011;54230;52.402;6.276;2023-03-01T19:20:00;15.9;;;7.9;;
67344;SDS011;54230;52.402;6.276;2023-03-01T19:25:00;15.6;;;7.8;;
67344;SDS011;54230;52.402;6.276;2023-03-01T19:30:00;17.0;;;7.8;;
67344;SDS011;54230;52.402;6.276;2023-03-01T19:35:00;19.4;;;8.1;;
67344;SDS011;54230;52.402;6.276;2023-03-01T19:40:00;16.9;;;8.3;;
67344;SDS011;54230;52.402;6.276;2023-03-01T19:45:00;16.9;;;8.5;;
67344;SDS011;54230;52.402;6.276;2023-03-01T19:50:00;18.7;;;8.5;;
67344;SDS011;54230;52.402;6.276;2023-03-01T19:55:00;18.7;;;9.2;;
67344;SDS011;54230;52.402;6.276;2023-03-01T20:00:00;18.5;;;9.3;;
67344;SDS011;54230;52.402;6.276;2023-03-01T20:05:00;18.4;;;8.5;;
67344;SDS011;54230;52.402;6.276;2023-03-01T20:10:00;18.5;;;9.1;;
67344;SDS011;54230;52.402;6.276;2023-03-01T20:15:00;16.9;;;8.5;;
67344;SDS011;54230;52.402;6.276;2023-03-01T20:20:00;18.6;;;9.5;;
67344;SDS011;54230;52.402;6.276;2023-03-01T20:25:00;18.7;;;9.2;;
67344;SDS011;54230;52.402;6.276;2023-03-01T20:30:00;19.4;;;9.3;;
67344;SDS011;54230;52.402;6.276;2023-03-01T20:35:00;18.3;;;9.3;;
67344;SDS011;54230;52.402;6.276;2023-03-01T20:40:00;19.0;;;9.6;;
67344;SDS011;54230;52.402;6.276;2023-03-01T20:45:00;19.3;;;10.2;;
67344;SDS011;54230;52.402;6.276;2023-03-01T20:50:00;19.1;;;10.1;;
67344;SDS011;54230;52.402;6.276;2023-03-01T20:55:00;21.3;;;10.9;;
67344;SDS011;54230;52.402;6.276;2023-03-01T21:00:00;23.9;;;11.8;;
67344;SDS011;54230;52.402;6.276;2023-03-01T21:05:00;25.9;;;12.6;;
67344;SDS011;54230;52.402;6.276;2023-03-01T21:10:00;26.4;;;13.1;;
67344;SDS011;54230;52.402;6.276;2023-03-01T21:15:00;27.0;;;13.9;;
67344;SDS011;54230;52.402;6.276;2023-03-01T21:20:00;30.8;;;14.5;;
67344;SDS011;54230;52.402;6.276;2023-03-01T21:25:00;29.9;;;14.8;;
67344;SDS011;54230;52.402;6.276;2023-03-01T21:30:00;35.5;;;17.0;;
67344;SDS011;54230;52.402;6.276;2023-03-01T21:35:00;35.9;;;17.3;;
67344;SDS011;54230;52.402;6.276;2023-03-01T21:40:00;39.0;;;18.4;;
67344;SDS011;54230;52.402;6.276;2023-03-01T21:45:00;37.7;;;18.7;;
67344;SDS011;54230;52.402;6.276;2023-03-01T21:50:00;39.2;;;18.5;;
67344;SDS011;54230;52.402;6.276;2023-03-01T21:55:00;40.0;;;18.8;;
67344;SDS011;54230;52.402;6.276;2023-03-01T22:00:00;40.2;;;18.8;;
67344;SDS011;54230;52.402;6.276;2023-03-01T22:05:00;41.0;;;18.9;;
67344;SDS011;54230;52.402;6.276;2023-03-01T22:10:00;39.6;;;19.2;;
67344;SDS011;54230;52.402;6.276;2023-03-01T22:15:00;40.5;;;18.7;;
67344;SDS011;54230;52.402;6.276;2023-03-01T22:20:00;39.0;;;18.9;;
67344;SDS011;54230;52.402;6.276;2023-03-01T22:25:00;42.9;;;19.6;;
67344;SDS011;54230;52.402;6.276;2023-03-01T22:30:00;46.5;;;20.8;;
67344;SDS011;54230;52.402;6.276;2023-03-01T22:35:00;43.7;;;19.7;;
67344;SDS011;54230;52.402;6.276;2023-03-01T22:40:00;44.8;;;19.9;;
67344;SDS011;54230;52.402;6.276;2023-03-01T22:45:00;47.7;;;20.8;;
67344;SDS011;54230;52.402;6.276;2023-03-01T22:50:00;50.2;;;21.2;;
67344;SDS011;54230;52.402;6.276;2023-03-01T22:55:00;47.3;;;20.3;;
67344;SDS011;54230;52.402;6.276;2023-03-01T23:00:00;48.7;;;21.0;;
67344;SDS011;54230;52.402;6.276;2023-03-01T23:05:00;52.2;;;22.0;;
67344;SDS011;54230;52.402;6.276;2023-03-01T23:10:00;55.8;;;23.2;;
67344;SDS011;54230;52.402;6.276;2023-03-01T23:15:00;57.6;;;22.4;;
67344;SDS011;54230;52.402;6.276;2023-03-01T23:20:00;56.3;;;22.1;;
67344;SDS011;54230;52.402;6.276;2023-03-01T23:25:00;53.8;;;22.2;;
67344;SDS011;54230;52.402;6.276;2023-03-01T23:30:00;54.0;;;22.4;;
67344;SDS011;54230;52.402;6.276;2023-03-01T23:35:00;56.2;;;22.6;;
67344;SDS011;54230;52.402;6.276;2023-03-01T23:40:00;52.6;;;22.0;;
67344;SDS011;54230;52.402;6.276;2023-03-01T23:45:00;53.4;;;21.8;;
67344;SDS011;54230;52.402;6.276;2023-03-01T23:50:00;54.1;;;22.5;;
67344;SDS011;54230;52.402;6.276;2023-03-01T23:55:00;51.0;;;21.1;;
